sensor_id;sensor_type;location;lat;lon;timestamp;P1;durP1;ratioP1;P2;durP2;ratioP2
35578;SDS011;21687;48.900;9.188;2023-06-22T00:00:49;8.90;;;7.50;;
35578;SDS011;21687;48.900;9.188;2023-06-22T00:03:17;8.03;;;7.23;;
35578;SDS011;21687;48.900;9.188;2023-06-22T00:05:44;13.77;;;8.03;;
35578;SDS011;21687;48.900;9.188;2023-06-22T00:08:11;9.97;;;7.67;;
35578;SDS011;21687;48.900;9.188;2023-06-22T00:10:38;8.70;;;7.43;;
35578;SDS011;21687;48.900;9.188;2023-06-22T00:13:05;9.43;;;7.77;;
35578;SDS011;21687;48.900;9.188;2023-06-22T00:15:33;14.07;;;7.70;;
35578;SDS011;21687;48.900;9.188;2023-06-22T00:18:00;9.03;;;7.50;;
35578;SDS011;21687;48.900;9.188;2023-06-22T00:20:27;8.87;;;8.00;;
35578;SDS011;21687;48.900;9.188;2023-06-22T00:22:55;8.53;;;7.60;;
35578;SDS011;21687;48.900;9.188;2023-06-22T00:25:23;8.63;;;7.73;;
35578;SDS011;21687;48.900;9.188;2023-06-22T00:27:49;9.27;;;7.70;;
35578;SDS011;21687;48.900;9.188;2023-06-22T00:30:16;9.93;;;8.27;;
35578;SDS011;21687;48.900;9.188;2023-06-22T00:32:44;8.50;;;7.60;;
35578;SDS011;21687;48.900;9.188;2023-06-22T00:35:14;9.47;;;8.47;;
35578;SDS011;21687;48.900;9.188;2023-06-22T00:37:40;9.60;;;7.43;;
35578;SDS011;21687;48.900;9.188;2023-06-22T00:40:09;8.33;;;6.93;;
35578;SDS011;21687;48.900;9.188;2023-06-22T00:42:40;9.03;;;8.13;;
35578;SDS011;21687;48.900;9.188;2023-06-22T00:45:07;9.93;;;8.10;;
35578;SDS011;21687;48.900;9.188;2023-06-22T00:47:34;9.97;;;8.20;;
35578;SDS011;21687;48.900;9.188;2023-06-22T00:50:03;13.17;;;7.97;;
35578;SDS011;21687;48.900;9.188;2023-06-22T00:52:33;8.37;;;7.57;;
35578;SDS011;21687;48.900;9.188;2023-06-22T00:55:01;9.30;;;7.53;;
35578;SDS011;21687;48.900;9.188;2023-06-22T00:57:28;9.93;;;8.23;;
35578;SDS011;21687;48.900;9.188;2023-06-22T00:59:55;9.00;;;7.57;;
35578;SDS011;21687;48.900;9.188;2023-06-22T01:02:21;8.80;;;7.83;;
35578;SDS011;21687;48.900;9.188;2023-06-22T01:04:48;11.23;;;8.13;;
35578;SDS011;21687;48.900;9.188;2023-06-22T01:09:57;11.13;;;8.50;;
35578;SDS011;21687;48.900;9.188;2023-06-22T01:12:34;10.63;;;8.33;;
35578;SDS011;21687;48.900;9.188;2023-06-22T01:15:49;11.43;;;8.60;;
35578;SDS011;21687;48.900;9.188;2023-06-22T01:18:38;9.10;;;8.20;;
35578;SDS011;21687;48.900;9.188;2023-06-22T01:21:09;11.27;;;9.13;;
35578;SDS011;21687;48.900;9.188;2023-06-22T01:23:48;14.63;;;9.37;;
35578;SDS011;21687;48.900;9.188;2023-06-22T01:26:37;8.80;;;7.93;;
35578;SDS011;21687;48.900;9.188;2023-06-22T01:29:05;13.10;;;8.43;;
35578;SDS011;21687;48.900;9.188;2023-06-22T01:31:33;9.40;;;7.40;;
35578;SDS011;21687;48.900;9.188;2023-06-22T01:34:01;9.57;;;8.33;;
35578;SDS011;21687;48.900;9.188;2023-06-22T01:36:30;12.57;;;9.67;;
35578;SDS011;21687;48.900;9.188;2023-06-22T01:38:58;12.10;;;9.70;;
35578;SDS011;21687;48.900;9.188;2023-06-22T01:41:26;9.90;;;8.90;;
35578;SDS011;21687;48.900;9.188;2023-06-22T01:43:54;11.20;;;9.23;;
35578;SDS011;21687;48.900;9.188;2023-06-22T01:46:22;10.60;;;8.33;;
35578;SDS011;21687;48.900;9.188;2023-06-22T01:48:49;12.40;;;9.70;;
35578;SDS011;21687;48.900;9.188;2023-06-22T01:51:16;11.63;;;9.60;;
35578;SDS011;21687;48.900;9.188;2023-06-22T01:53:43;11.13;;;9.43;;
35578;SDS011;21687;48.900;9.188;2023-06-22T01:56:09;17.27;;;8.93;;
35578;SDS011;21687;48.900;9.188;2023-06-22T01:58:37;10.50;;;8.40;;
35578;SDS011;21687;48.900;9.188;2023-06-22T02:01:10;9.53;;;8.63;;
35578;SDS011;21687;48.900;9.188;2023-06-22T02:03:43;9.93;;;8.87;;
35578;SDS011;21687;48.900;9.188;2023-06-22T02:06:23;14.80;;;8.93;;
35578;SDS011;21687;48.900;9.188;2023-06-22T02:08:55;10.57;;;8.83;;
35578;SDS011;21687;48.900;9.188;2023-06-22T02:11:26;13.77;;;9.90;;
35578;SDS011;21687;48.900;9.188;2023-06-22T02:13:55;10.47;;;8.90;;
35578;SDS011;21687;48.900;9.188;2023-06-22T02:16:24;10.17;;;9.10;;
35578;SDS011;21687;48.900;9.188;2023-06-22T02:18:54;13.60;;;9.57;;
35578;SDS011;21687;48.900;9.188;2023-06-22T02:21:23;10.47;;;9.37;;
35578;SDS011;21687;48.900;9.188;2023-06-22T02:23:49;12.37;;;8.93;;
35578;SDS011;21687;48.900;9.188;2023-06-22T02:26:16;11.43;;;9.27;;
35578;SDS011;21687;48.900;9.188;2023-06-22T02:28:43;11.60;;;8.83;;
35578;SDS011;21687;48.900;9.188;2023-06-22T02:31:09;10.33;;;8.70;;
35578;SDS011;21687;48.900;9.188;2023-06-22T02:33:36;12.30;;;9.50;;
35578;SDS011;21687;48.900;9.188;2023-06-22T02:36:02;11.13;;;9.77;;
35578;SDS011;21687;48.900;9.188;2023-06-22T02:38:31;10.47;;;9.33;;
35578;SDS011;21687;48.900;9.188;2023-06-22T02:40:59;13.00;;;9.53;;
35578;SDS011;21687;48.900;9.188;2023-06-22T02:43:26;13.37;;;9.57;;
35578;SDS011;21687;48.900;9.188;2023-06-22T02:45:52;11.30;;;8.73;;
35578;SDS011;21687;48.900;9.188;2023-06-22T02:48:18;11.70;;;9.30;;
35578;SDS011;21687;48.900;9.188;2023-06-22T02:50:45;10.37;;;9.23;;
35578;SDS011;21687;48.900;9.188;2023-06-22T02:53:11;12.03;;;9.30;;
35578;SDS011;21687;48.900;9.188;2023-06-22T02:55:37;10.37;;;9.10;;
35578;SDS011;21687;48.900;9.188;2023-06-22T02:58:05;11.20;;;9.70;;
35578;SDS011;21687;48.900;9.188;2023-06-22T03:00:31;11.37;;;9.43;;
35578;SDS011;21687;48.900;9.188;2023-06-22T03:02:58;11.37;;;9.63;;
35578;SDS011;21687;48.900;9.188;2023-06-22T03:05:24;13.50;;;9.60;;
35578;SDS011;21687;48.900;9.188;2023-06-22T03:07:51;11.47;;;10.27;;
35578;SDS011;21687;48.900;9.188;2023-06-22T03:10:17;10.77;;;9.43;;
35578;SDS011;21687;48.900;9.188;2023-06-22T03:12:44;12.33;;;9.07;;
35578;SDS011;21687;48.900;9.188;2023-06-22T03:15:11;10.83;;;8.80;;
35578;SDS011;21687;48.900;9.188;2023-06-22T03:17:38;9.47;;;8.43;;
35578;SDS011;21687;48.900;9.188;2023-06-22T03:20:05;10.30;;;8.93;;
35578;SDS011;21687;48.900;9.188;2023-06-22T03:22:34;10.10;;;8.83;;
35578;SDS011;21687;48.900;9.188;2023-06-22T03:25:02;10.40;;;9.27;;
35578;SDS011;21687;48.900;9.188;2023-06-22T03:27:29;11.37;;;9.30;;
35578;SDS011;21687;48.900;9.188;2023-06-22T03:29:56;13.53;;;9.07;;
35578;SDS011;21687;48.900;9.188;2023-06-22T03:32:23;10.93;;;8.80;;
35578;SDS011;21687;48.900;9.188;2023-06-22T03:34:50;11.80;;;9.70;;
35578;SDS011;21687;48.900;9.188;2023-06-22T03:37:16;11.20;;;9.03;;
35578;SDS011;21687;48.900;9.188;2023-06-22T03:39:43;10.23;;;9.17;;
35578;SDS011;21687;48.900;9.188;2023-06-22T03:42:09;10.10;;;8.93;;
35578;SDS011;21687;48.900;9.188;2023-06-22T03:44:35;14.13;;;9.13;;
35578;SDS011;21687;48.900;9.188;2023-06-22T03:47:03;12.20;;;9.87;;
35578;SDS011;21687;48.900;9.188;2023-06-22T03:49:29;13.73;;;9.63;;
35578;SDS011;21687;48.900;9.188;2023-06-22T03:51:56;11.70;;;9.73;;
35578;SDS011;21687;48.900;9.188;2023-06-22T03:54:22;14.13;;;10.73;;
35578;SDS011;21687;48.900;9.188;2023-06-22T03:56:48;12.77;;;10.87;;
35578;SDS011;21687;48.900;9.188;2023-06-22T03:59:15;14.67;;;11.00;;
35578;SDS011;21687;48.900;9.188;2023-06-22T04:01:42;13.63;;;11.20;;
35578;SDS011;21687;48.900;9.188;2023-06-22T04:04:08;12.67;;;10.43;;
35578;SDS011;21687;48.900;9.188;2023-06-22T04:06:34;13.77;;;11.10;;
35578;SDS011;21687;48.900;9.188;2023-06-22T04:09:01;13.77;;;10.17;;
35578;SDS011;21687;48.900;9.188;2023-06-22T04:11:28;12.50;;;10.53;;
35578;SDS011;21687;48.900;9.188;2023-06-22T04:13:54;14.87;;;10.07;;
35578;SDS011;21687;48.900;9.188;2023-06-22T04:16:20;16.20;;;11.07;;
35578;SDS011;21687;48.900;9.188;2023-06-22T04:18:47;10.97;;;8.93;;
35578;SDS011;21687;48.900;9.188;2023-06-22T04:21:13;14.03;;;9.43;;
35578;SDS011;21687;48.900;9.188;2023-06-22T04:23:40;11.97;;;8.97;;
35578;SDS011;21687;48.900;9.188;2023-06-22T04:26:06;9.73;;;8.70;;
35578;SDS011;21687;48.900;9.188;2023-06-22T04:28:32;12.20;;;8.80;;
35578;SDS011;21687;48.900;9.188;2023-06-22T04:31:01;13.90;;;8.17;;
35578;SDS011;21687;48.900;9.188;2023-06-22T04:33:27;10.30;;;8.17;;
35578;SDS011;21687;48.900;9.188;2023-06-22T04:35:55;9.30;;;8.07;;
35578;SDS011;21687;48.900;9.188;2023-06-22T04:38:22;8.60;;;7.70;;
35578;SDS011;21687;48.900;9.188;2023-06-22T04:40:50;10.70;;;7.43;;
35578;SDS011;21687;48.900;9.188;2023-06-22T04:43:16;9.47;;;8.07;;
35578;SDS011;21687;48.900;9.188;2023-06-22T04:45:42;11.83;;;7.97;;
35578;SDS011;21687;48.900;9.188;2023-06-22T04:48:09;9.43;;;8.23;;
35578;SDS011;21687;48.900;9.188;2023-06-22T04:50:38;10.00;;;7.97;;
35578;SDS011;21687;48.900;9.188;2023-06-22T04:53:04;11.67;;;8.33;;
35578;SDS011;21687;48.900;9.188;2023-06-22T04:55:31;11.43;;;8.87;;
35578;SDS011;21687;48.900;9.188;2023-06-22T04:57:58;9.30;;;7.80;;
35578;SDS011;21687;48.900;9.188;2023-06-22T05:00:30;9.37;;;8.47;;
35578;SDS011;21687;48.900;9.188;2023-06-22T05:02:56;12.23;;;8.47;;
35578;SDS011;21687;48.900;9.188;2023-06-22T05:05:23;9.13;;;7.80;;
35578;SDS011;21687;48.900;9.188;2023-06-22T05:07:50;9.50;;;8.10;;
35578;SDS011;21687;48.900;9.188;2023-06-22T05:10:24;10.93;;;8.37;;
35578;SDS011;21687;48.900;9.188;2023-06-22T05:12:51;10.23;;;8.03;;
35578;SDS011;21687;48.900;9.188;2023-06-22T05:15:17;11.03;;;8.33;;
35578;SDS011;21687;48.900;9.188;2023-06-22T05:17:51;13.13;;;8.83;;
35578;SDS011;21687;48.900;9.188;2023-06-22T05:20:18;11.13;;;8.23;;
35578;SDS011;21687;48.900;9.188;2023-06-22T05:22:44;15.93;;;8.80;;
35578;SDS011;21687;48.900;9.188;2023-06-22T05:25:11;9.90;;;8.43;;
35578;SDS011;21687;48.900;9.188;2023-06-22T05:27:38;9.87;;;8.67;;
35578;SDS011;21687;48.900;9.188;2023-06-22T05:30:08;10.17;;;7.90;;
35578;SDS011;21687;48.900;9.188;2023-06-22T05:32:35;11.33;;;8.37;;
35578;SDS011;21687;48.900;9.188;2023-06-22T05:35:02;10.23;;;8.40;;
35578;SDS011;21687;48.900;9.188;2023-06-22T05:37:29;9.47;;;8.33;;
35578;SDS011;21687;48.900;9.188;2023-06-22T05:39:55;10.40;;;7.90;;
35578;SDS011;21687;48.900;9.188;2023-06-22T05:42:22;11.80;;;8.87;;
35578;SDS011;21687;48.900;9.188;2023-06-22T05:44:51;10.87;;;7.57;;
35578;SDS011;21687;48.900;9.188;2023-06-22T05:47:18;13.20;;;8.30;;
35578;SDS011;21687;48.900;9.188;2023-06-22T05:49:45;9.03;;;7.87;;
35578;SDS011;21687;48.900;9.188;2023-06-22T05:52:11;10.77;;;7.63;;
35578;SDS011;21687;48.900;9.188;2023-06-22T05:54:37;9.10;;;8.13;;
35578;SDS011;21687;48.900;9.188;2023-06-22T05:57:04;9.23;;;7.20;;
35578;SDS011;21687;48.900;9.188;2023-06-22T05:59:31;8.77;;;7.17;;
35578;SDS011;21687;48.900;9.188;2023-06-22T06:01:57;12.00;;;8.03;;
35578;SDS011;21687;48.900;9.188;2023-06-22T06:04:23;9.20;;;8.07;;
35578;SDS011;21687;48.900;9.188;2023-06-22T06:06:50;9.47;;;8.13;;
35578;SDS011;21687;48.900;9.188;2023-06-22T06:09:16;11.90;;;7.87;;
35578;SDS011;21687;48.900;9.188;2023-06-22T06:11:42;8.20;;;7.10;;
35578;SDS011;21687;48.900;9.188;2023-06-22T06:14:09;8.90;;;7.07;;
35578;SDS011;21687;48.900;9.188;2023-06-22T06:16:35;8.73;;;6.80;;
35578;SDS011;21687;48.900;9.188;2023-06-22T06:19:02;9.23;;;7.50;;
35578;SDS011;21687;48.900;9.188;2023-06-22T06:21:28;8.07;;;6.70;;
35578;SDS011;21687;48.900;9.188;2023-06-22T06:23:54;9.00;;;6.73;;
35578;SDS011;21687;48.900;9.188;2023-06-22T06:26:21;9.63;;;6.83;;
35578;SDS011;21687;48.900;9.188;2023-06-22T06:28:53;11.93;;;7.37;;
35578;SDS011;21687;48.900;9.188;2023-06-22T06:31:20;8.17;;;7.37;;
35578;SDS011;21687;48.900;9.188;2023-06-22T06:33:46;9.40;;;6.50;;
35578;SDS011;21687;48.900;9.188;2023-06-22T06:36:13;10.60;;;6.93;;
35578;SDS011;21687;48.900;9.188;2023-06-22T06:38:40;7.27;;;6.57;;
35578;SDS011;21687;48.900;9.188;2023-06-22T06:41:07;7.93;;;7.03;;
35578;SDS011;21687;48.900;9.188;2023-06-22T06:43:34;8.97;;;6.50;;
35578;SDS011;21687;48.900;9.188;2023-06-22T06:46:00;8.57;;;5.87;;
35578;SDS011;21687;48.900;9.188;2023-06-22T06:48:28;6.67;;;5.83;;
35578;SDS011;21687;48.900;9.188;2023-06-22T06:50:54;8.03;;;5.80;;
35578;SDS011;21687;48.900;9.188;2023-06-22T06:53:20;7.37;;;5.73;;
35578;SDS011;21687;48.900;9.188;2023-06-22T06:55:47;6.30;;;5.70;;
35578;SDS011;21687;48.900;9.188;2023-06-22T06:58:13;8.67;;;5.80;;
35578;SDS011;21687;48.900;9.188;2023-06-22T07:00:40;6.23;;;5.53;;
35578;SDS011;21687;48.900;9.188;2023-06-22T07:03:06;6.67;;;5.33;;
35578;SDS011;21687;48.900;9.188;2023-06-22T07:05:33;7.37;;;5.60;;
35578;SDS011;21687;48.900;9.188;2023-06-22T07:08:00;8.20;;;5.57;;
35578;SDS011;21687;48.900;9.188;2023-06-22T07:10:27;7.47;;;5.33;;
35578;SDS011;21687;48.900;9.188;2023-06-22T07:12:54;7.40;;;5.60;;
35578;SDS011;21687;48.900;9.188;2023-06-22T07:15:22;7.60;;;5.70;;
35578;SDS011;21687;48.900;9.188;2023-06-22T07:17:48;5.90;;;5.40;;
35578;SDS011;21687;48.900;9.188;2023-06-22T07:20:14;7.50;;;5.77;;
35578;SDS011;21687;48.900;9.188;2023-06-22T07:22:42;8.87;;;5.87;;
35578;SDS011;21687;48.900;9.188;2023-06-22T07:25:10;5.87;;;5.20;;
35578;SDS011;21687;48.900;9.188;2023-06-22T07:27:40;6.97;;;5.27;;
35578;SDS011;21687;48.900;9.188;2023-06-22T07:30:11;7.47;;;6.13;;
35578;SDS011;21687;48.900;9.188;2023-06-22T07:32:37;7.57;;;5.27;;
35578;SDS011;21687;48.900;9.188;2023-06-22T07:35:05;7.43;;;5.77;;
35578;SDS011;21687;48.900;9.188;2023-06-22T07:37:32;6.03;;;5.33;;
35578;SDS011;21687;48.900;9.188;2023-06-22T07:40:00;7.07;;;5.23;;
35578;SDS011;21687;48.900;9.188;2023-06-22T07:42:29;7.93;;;5.70;;
35578;SDS011;21687;48.900;9.188;2023-06-22T07:44:57;6.40;;;4.97;;
35578;SDS011;21687;48.900;9.188;2023-06-22T07:47:24;5.90;;;5.30;;
35578;SDS011;21687;48.900;9.188;2023-06-22T07:49:53;6.37;;;5.57;;
35578;SDS011;21687;48.900;9.188;2023-06-22T07:52:20;6.73;;;5.30;;
35578;SDS011;21687;48.900;9.188;2023-06-22T07:54:47;7.43;;;5.90;;
35578;SDS011;21687;48.900;9.188;2023-06-22T07:57:13;6.40;;;5.40;;
35578;SDS011;21687;48.900;9.188;2023-06-22T07:59:39;5.73;;;5.07;;
35578;SDS011;21687;48.900;9.188;2023-06-22T08:02:06;14.40;;;5.77;;
35578;SDS011;21687;48.900;9.188;2023-06-22T08:04:33;6.17;;;5.03;;
35578;SDS011;21687;48.900;9.188;2023-06-22T08:07:00;6.83;;;5.33;;
35578;SDS011;21687;48.900;9.188;2023-06-22T08:09:30;5.77;;;5.13;;
35578;SDS011;21687;48.900;9.188;2023-06-22T08:11:57;8.67;;;5.43;;
35578;SDS011;21687;48.900;9.188;2023-06-22T08:14:27;9.20;;;5.43;;
35578;SDS011;21687;48.900;9.188;2023-06-22T08:16:54;5.77;;;5.07;;
35578;SDS011;21687;48.900;9.188;2023-06-22T08:19:21;7.53;;;4.90;;
35578;SDS011;21687;48.900;9.188;2023-06-22T08:21:47;7.13;;;5.10;;
35578;SDS011;21687;48.900;9.188;2023-06-22T08:24:13;5.83;;;4.80;;
35578;SDS011;21687;48.900;9.188;2023-06-22T08:26:40;5.67;;;5.00;;
35578;SDS011;21687;48.900;9.188;2023-06-22T08:29:06;6.50;;;5.33;;
35578;SDS011;21687;48.900;9.188;2023-06-22T08:31:33;10.00;;;5.73;;
35578;SDS011;21687;48.900;9.188;2023-06-22T08:33:59;7.77;;;5.07;;
35578;SDS011;21687;48.900;9.188;2023-06-22T08:36:25;6.43;;;4.90;;
35578;SDS011;21687;48.900;9.188;2023-06-22T08:38:55;6.60;;;5.03;;
35578;SDS011;21687;48.900;9.188;2023-06-22T08:41:22;5.13;;;4.60;;
35578;SDS011;21687;48.900;9.188;2023-06-22T08:43:49;5.90;;;5.13;;
35578;SDS011;21687;48.900;9.188;2023-06-22T08:46:15;7.47;;;5.00;;
35578;SDS011;21687;48.900;9.188;2023-06-22T08:48:45;8.33;;;5.27;;
35578;SDS011;21687;48.900;9.188;2023-06-22T08:51:11;6.60;;;4.70;;
35578;SDS011;21687;48.900;9.188;2023-06-22T08:53:39;9.97;;;4.83;;
35578;SDS011;21687;48.900;9.188;2023-06-22T08:56:05;6.33;;;5.13;;
35578;SDS011;21687;48.900;9.188;2023-06-22T08:58:32;5.20;;;4.70;;
35578;SDS011;21687;48.900;9.188;2023-06-22T09:00:58;9.00;;;5.60;;
35578;SDS011;21687;48.900;9.188;2023-06-22T09:03:26;7.43;;;4.93;;
35578;SDS011;21687;48.900;9.188;2023-06-22T09:05:52;7.00;;;4.70;;
35578;SDS011;21687;48.900;9.188;2023-06-22T09:08:19;7.00;;;4.60;;
35578;SDS011;21687;48.900;9.188;2023-06-22T09:10:46;6.33;;;4.50;;
35578;SDS011;21687;48.900;9.188;2023-06-22T09:13:12;6.57;;;4.37;;
35578;SDS011;21687;48.900;9.188;2023-06-22T09:15:38;7.93;;;4.90;;
35578;SDS011;21687;48.900;9.188;2023-06-22T09:18:04;7.43;;;4.80;;
35578;SDS011;21687;48.900;9.188;2023-06-22T09:20:31;7.10;;;4.80;;
35578;SDS011;21687;48.900;9.188;2023-06-22T09:22:57;10.67;;;5.10;;
35578;SDS011;21687;48.900;9.188;2023-06-22T09:25:23;5.83;;;5.20;;
35578;SDS011;21687;48.900;9.188;2023-06-22T09:27:50;7.60;;;5.27;;
35578;SDS011;21687;48.900;9.188;2023-06-22T09:30:16;7.20;;;5.10;;
35578;SDS011;21687;48.900;9.188;2023-06-22T09:32:42;10.77;;;6.10;;
35578;SDS011;21687;48.900;9.188;2023-06-22T09:35:09;6.83;;;5.53;;
35578;SDS011;21687;48.900;9.188;2023-06-22T09:37:38;7.73;;;4.80;;
35578;SDS011;21687;48.900;9.188;2023-06-22T09:40:05;11.70;;;4.40;;
35578;SDS011;21687;48.900;9.188;2023-06-22T09:42:37;6.47;;;5.03;;
35578;SDS011;21687;48.900;9.188;2023-06-22T09:45:04;6.57;;;5.03;;
35578;SDS011;21687;48.900;9.188;2023-06-22T09:47:31;13.93;;;5.33;;
35578;SDS011;21687;48.900;9.188;2023-06-22T09:49:57;8.10;;;4.83;;
35578;SDS011;21687;48.900;9.188;2023-06-22T09:52:24;8.20;;;4.73;;
35578;SDS011;21687;48.900;9.188;2023-06-22T09:54:51;6.13;;;4.87;;
35578;SDS011;21687;48.900;9.188;2023-06-22T09:57:17;9.47;;;5.17;;
35578;SDS011;21687;48.900;9.188;2023-06-22T09:59:43;10.50;;;5.00;;
35578;SDS011;21687;48.900;9.188;2023-06-22T10:02:10;7.13;;;4.67;;
35578;SDS011;21687;48.900;9.188;2023-06-22T10:04:36;11.80;;;5.17;;
35578;SDS011;21687;48.900;9.188;2023-06-22T10:07:04;7.67;;;4.70;;
35578;SDS011;21687;48.900;9.188;2023-06-22T10:09:31;12.10;;;5.10;;
35578;SDS011;21687;48.900;9.188;2023-06-22T10:11:57;8.13;;;5.10;;
35578;SDS011;21687;48.900;9.188;2023-06-22T10:14:24;11.20;;;5.50;;
35578;SDS011;21687;48.900;9.188;2023-06-22T10:16:52;10.50;;;5.53;;
35578;SDS011;21687;48.900;9.188;2023-06-22T10:19:18;6.60;;;5.00;;
35578;SDS011;21687;48.900;9.188;2023-06-22T10:21:45;8.33;;;5.10;;
35578;SDS011;21687;48.900;9.188;2023-06-22T10:24:11;8.40;;;5.50;;
35578;SDS011;21687;48.900;9.188;2023-06-22T10:26:37;8.97;;;5.07;;
35578;SDS011;21687;48.900;9.188;2023-06-22T10:29:04;7.90;;;5.20;;
35578;SDS011;21687;48.900;9.188;2023-06-22T10:31:30;10.53;;;5.13;;
35578;SDS011;21687;48.900;9.188;2023-06-22T10:33:57;7.20;;;5.30;;
35578;SDS011;21687;48.900;9.188;2023-06-22T10:36:23;7.93;;;5.03;;
35578;SDS011;21687;48.900;9.188;2023-06-22T10:38:49;9.30;;;4.97;;
35578;SDS011;21687;48.900;9.188;2023-06-22T10:41:17;7.90;;;5.53;;
35578;SDS011;21687;48.900;9.188;2023-06-22T10:43:44;9.60;;;5.30;;
35578;SDS011;21687;48.900;9.188;2023-06-22T10:46:10;9.03;;;5.03;;
35578;SDS011;21687;48.900;9.188;2023-06-22T10:48:37;9.97;;;4.80;;
35578;SDS011;21687;48.900;9.188;2023-06-22T10:51:03;7.67;;;5.20;;
35578;SDS011;21687;48.900;9.188;2023-06-22T10:53:31;9.20;;;4.97;;
35578;SDS011;21687;48.900;9.188;2023-06-22T10:55:57;10.97;;;5.00;;
35578;SDS011;21687;48.900;9.188;2023-06-22T10:58:24;8.43;;;4.77;;
35578;SDS011;21687;48.900;9.188;2023-06-22T11:00:50;7.67;;;4.93;;
35578;SDS011;21687;48.900;9.188;2023-06-22T11:03:16;10.57;;;4.87;;
35578;SDS011;21687;48.900;9.188;2023-06-22T11:05:43;7.70;;;5.13;;
35578;SDS011;21687;48.900;9.188;2023-06-22T11:08:09;11.03;;;5.10;;
35578;SDS011;21687;48.900;9.188;2023-06-22T11:10:35;8.37;;;5.47;;
35578;SDS011;21687;48.900;9.188;2023-06-22T11:13:02;12.43;;;5.07;;
35578;SDS011;21687;48.900;9.188;2023-06-22T11:15:29;7.80;;;4.57;;
35578;SDS011;21687;48.900;9.188;2023-06-22T11:17:57;8.17;;;4.90;;
35578;SDS011;21687;48.900;9.188;2023-06-22T11:20:23;11.57;;;5.03;;
35578;SDS011;21687;48.900;9.188;2023-06-22T11:22:49;6.43;;;4.63;;
35578;SDS011;21687;48.900;9.188;2023-06-22T11:25:16;8.23;;;4.80;;
35578;SDS011;21687;48.900;9.188;2023-06-22T11:27:42;8.93;;;5.00;;
35578;SDS011;21687;48.900;9.188;2023-06-22T11:30:08;7.70;;;4.87;;
35578;SDS011;21687;48.900;9.188;2023-06-22T11:32:35;6.77;;;4.73;;
35578;SDS011;21687;48.900;9.188;2023-06-22T11:35:01;8.83;;;5.13;;
35578;SDS011;21687;48.900;9.188;2023-06-22T11:37:28;9.80;;;4.67;;
35578;SDS011;21687;48.900;9.188;2023-06-22T11:39:54;12.73;;;4.80;;
35578;SDS011;21687;48.900;9.188;2023-06-22T11:42:20;6.27;;;4.43;;
35578;SDS011;21687;48.900;9.188;2023-06-22T11:44:48;7.50;;;4.80;;
35578;SDS011;21687;48.900;9.188;2023-06-22T11:47:15;5.53;;;4.30;;
35578;SDS011;21687;48.900;9.188;2023-06-22T11:49:41;9.07;;;4.70;;
35578;SDS011;21687;48.900;9.188;2023-06-22T11:52:07;11.30;;;4.93;;
35578;SDS011;21687;48.900;9.188;2023-06-22T11:54:34;10.60;;;4.77;;
35578;SDS011;21687;48.900;9.188;2023-06-22T11:57:00;10.97;;;5.10;;
35578;SDS011;21687;48.900;9.188;2023-06-22T11:59:27;7.57;;;4.43;;
35578;SDS011;21687;48.900;9.188;2023-06-22T12:01:53;7.90;;;5.13;;
35578;SDS011;21687;48.900;9.188;2023-06-22T12:04:20;12.40;;;4.83;;
35578;SDS011;21687;48.900;9.188;2023-06-22T12:06:46;7.90;;;5.40;;
35578;SDS011;21687;48.900;9.188;2023-06-22T12:09:13;8.90;;;5.53;;
35578;SDS011;21687;48.900;9.188;2023-06-22T12:11:39;9.73;;;4.90;;
35578;SDS011;21687;48.900;9.188;2023-06-22T12:14:06;8.83;;;5.70;;
35578;SDS011;21687;48.900;9.188;2023-06-22T12:16:32;6.87;;;5.60;;
35578;SDS011;21687;48.900;9.188;2023-06-22T12:18:58;7.97;;;5.17;;
35578;SDS011;21687;48.900;9.188;2023-06-22T12:21:25;8.77;;;5.00;;
35578;SDS011;21687;48.900;9.188;2023-06-22T12:23:51;10.87;;;5.17;;
35578;SDS011;21687;48.900;9.188;2023-06-22T12:26:17;6.87;;;4.57;;
35578;SDS011;21687;48.900;9.188;2023-06-22T12:28:44;8.13;;;4.60;;
35578;SDS011;21687;48.900;9.188;2023-06-22T12:31:10;9.30;;;5.33;;
35578;SDS011;21687;48.900;9.188;2023-06-22T12:33:37;10.60;;;5.33;;
35578;SDS011;21687;48.900;9.188;2023-06-22T12:36:03;6.40;;;4.63;;
35578;SDS011;21687;48.900;9.188;2023-06-22T12:38:31;9.43;;;4.80;;
35578;SDS011;21687;48.900;9.188;2023-06-22T12:40:57;7.77;;;4.80;;
35578;SDS011;21687;48.900;9.188;2023-06-22T12:43:23;10.07;;;5.27;;
35578;SDS011;21687;48.900;9.188;2023-06-22T12:45:50;7.97;;;5.27;;
35578;SDS011;21687;48.900;9.188;2023-06-22T12:48:16;10.80;;;5.37;;
35578;SDS011;21687;48.900;9.188;2023-06-22T12:50:42;13.23;;;5.10;;
35578;SDS011;21687;48.900;9.188;2023-06-22T12:53:09;10.33;;;6.30;;
35578;SDS011;21687;48.900;9.188;2023-06-22T12:55:35;6.37;;;4.93;;
35578;SDS011;21687;48.900;9.188;2023-06-22T12:58:02;9.07;;;5.00;;
35578;SDS011;21687;48.900;9.188;2023-06-22T13:00:28;10.07;;;5.50;;
35578;SDS011;21687;48.900;9.188;2023-06-22T13:02:54;13.27;;;6.10;;
35578;SDS011;21687;48.900;9.188;2023-06-22T13:05:21;12.33;;;6.40;;
35578;SDS011;21687;48.900;9.188;2023-06-22T13:07:47;7.63;;;5.00;;
35578;SDS011;21687;48.900;9.188;2023-06-22T13:10:13;10.77;;;5.87;;
35578;SDS011;21687;48.900;9.188;2023-06-22T13:12:40;8.87;;;6.00;;
35578;SDS011;21687;48.900;9.188;2023-06-22T13:15:06;10.93;;;5.80;;
35578;SDS011;21687;48.900;9.188;2023-06-22T13:17:33;13.40;;;6.07;;
35578;SDS011;21687;48.900;9.188;2023-06-22T13:19:59;15.87;;;6.27;;
35578;SDS011;21687;48.900;9.188;2023-06-22T13:22:32;7.60;;;5.30;;
35578;SDS011;21687;48.900;9.188;2023-06-22T13:25:06;9.63;;;6.47;;
35578;SDS011;21687;48.900;9.188;2023-06-22T13:27:35;9.87;;;6.13;;
35578;SDS011;21687;48.900;9.188;2023-06-22T13:30:01;10.10;;;6.20;;
35578;SDS011;21687;48.900;9.188;2023-06-22T13:32:28;10.47;;;5.90;;
35578;SDS011;21687;48.900;9.188;2023-06-22T13:34:54;15.83;;;5.93;;
35578;SDS011;21687;48.900;9.188;2023-06-22T13:37:20;12.93;;;5.90;;
35578;SDS011;21687;48.900;9.188;2023-06-22T13:39:47;15.10;;;6.20;;
35578;SDS011;21687;48.900;9.188;2023-06-22T13:42:13;13.97;;;5.70;;
35578;SDS011;21687;48.900;9.188;2023-06-22T13:44:39;13.57;;;6.90;;
35578;SDS011;21687;48.900;9.188;2023-06-22T13:47:06;8.23;;;5.87;;
35578;SDS011;21687;48.900;9.188;2023-06-22T13:49:32;9.30;;;5.77;;
35578;SDS011;21687;48.900;9.188;2023-06-22T13:51:59;8.57;;;5.70;;
35578;SDS011;21687;48.900;9.188;2023-06-22T13:54:25;9.53;;;5.40;;
35578;SDS011;21687;48.900;9.188;2023-06-22T13:56:51;9.03;;;5.60;;
35578;SDS011;21687;48.900;9.188;2023-06-22T13:59:18;8.70;;;5.67;;
35578;SDS011;21687;48.900;9.188;2023-06-22T14:01:45;8.33;;;5.60;;
35578;SDS011;21687;48.900;9.188;2023-06-22T14:04:11;14.03;;;5.77;;
35578;SDS011;21687;48.900;9.188;2023-06-22T14:06:38;12.83;;;6.73;;
35578;SDS011;21687;48.900;9.188;2023-06-22T14:09:04;10.10;;;5.40;;
35578;SDS011;21687;48.900;9.188;2023-06-22T14:11:30;12.87;;;5.70;;
35578;SDS011;21687;48.900;9.188;2023-06-22T14:13:57;9.97;;;5.87;;
35578;SDS011;21687;48.900;9.188;2023-06-22T14:16:23;10.43;;;5.10;;
35578;SDS011;21687;48.900;9.188;2023-06-22T14:18:49;10.67;;;6.00;;
35578;SDS011;21687;48.900;9.188;2023-06-22T14:21:16;10.57;;;5.63;;
35578;SDS011;21687;48.900;9.188;2023-06-22T14:23:44;9.47;;;6.47;;
35578;SDS011;21687;48.900;9.188;2023-06-22T14:26:14;9.37;;;5.87;;
35578;SDS011;21687;48.900;9.188;2023-06-22T14:28:45;9.13;;;5.60;;
35578;SDS011;21687;48.900;9.188;2023-06-22T14:31:16;12.50;;;6.03;;
35578;SDS011;21687;48.900;9.188;2023-06-22T14:33:47;11.93;;;6.23;;
35578;SDS011;21687;48.900;9.188;2023-06-22T14:36:17;10.87;;;6.63;;
35578;SDS011;21687;48.900;9.188;2023-06-22T14:38:44;10.33;;;5.20;;
35578;SDS011;21687;48.900;9.188;2023-06-22T14:41:11;10.23;;;5.87;;
35578;SDS011;21687;48.900;9.188;2023-06-22T14:43:37;11.67;;;6.23;;